Time;durP1;ratioP1;P1;durP2;ratioP2;P2;SDS_P1;SDS_P2;PMS_P1;PMS_P2;Temp;Humidity;BMP_temperature;BMP_pressure;BME280_temperature;BME280_humidity;BME280_pressure;Samples;Min_cycle;Max_cycle;Signal;HPM_P1;HPM_P2
2022/05/15 00:02:42;;;;;;;4.93;4.40;;;22.20;99.90;;;;;;4996703;28;20030;-79
2022/05/15 00:05:10;;;;;;;4.57;4.10;;;22.30;99.90;;;;;;4995880;28;20041;-80
2022/05/15 00:07:37;;;;;;;4.68;3.40;;;22.50;99.90;;;;;;4996460;28;20053;-77
2022/05/15 00:10:07;;;;;;;4.88;4.15;;;22.50;99.90;;;;;;4995903;28;20023;-77
2022/05/15 00:12:34;;;;;;;3.25;2.95;;;22.40;99.90;;;;;;4994811;28;20416;-77
2022/05/15 00:15:01;;;;;;;5.00;3.42;;;22.50;99.90;;;;;;4994831;28;20051;-78
2022/05/15 00:17:28;;;;;;;4.70;3.95;;;22.70;99.90;;;;;;4996613;28;20100;-80
2022/05/15 00:19:56;;;;;;;4.40;3.70;;;22.80;99.90;;;;;;4995844;28;20022;-78
2022/05/15 00:22:25;;;;;;;15.32;9.82;;;23.00;99.90;;;;;;4996019;28;20077;-79
2022/05/15 00:24:52;;;;;;;4.88;4.00;;;23.20;99.90;;;;;;4995712;28;20030;-81
2022/05/15 00:27:19;;;;;;;3.90;3.50;;;23.20;99.90;;;;;;4996126;28;20061;-82
2022/05/15 00:29:47;;;;;;;5.10;3.72;;;23.30;99.90;;;;;;4995828;28;20098;-79
2022/05/15 00:32:14;;;;;;;3.20;2.90;;;23.20;99.90;;;;;;4995794;28;20018;-80
2022/05/15 00:34:41;;;;;;;3.58;3.10;;;23.30;99.90;;;;;;4995879;28;20034;-80
2022/05/15 00:37:09;;;;;;;3.40;3.10;;;23.10;99.90;;;;;;4995656;28;20030;-80
2022/05/15 00:39:36;;;;;;;4.18;3.35;;;23.20;99.90;;;;;;4995978;28;20026;-80
2022/05/15 00:42:12;;;;;;;5.18;3.30;;;23.30;99.90;;;;;;4995633;28;20078;-80
2022/05/15 00:44:39;;;;;;;4.18;2.85;;;23.50;99.90;;;;;;4993894;28;20117;-80
2022/05/15 00:47:07;;;;;;;3.20;2.45;;;23.50;99.90;;;;;;4994308;28;20031;-81
2022/05/15 00:49:37;;;;;;;4.38;2.85;;;23.40;99.90;;;;;;4995232;28;20030;-78
2022/05/15 00:52:12;;;;;;;;;;;23.30;99.90;;;;;;4994813;28;20026;-79
2022/05/15 00:54:53;;;;;;;3.45;2.35;;;23.40;99.90;;;;;;4994110;28;19929;-80
2022/05/15 00:57:31;;;;;;;4.15;2.08;;;23.30;99.90;;;;;;4994082;28;20395;-81
2022/05/15 01:00:15;;;;;;;2.75;1.92;;;23.30;99.90;;;;;;4995117;28;20364;-83
2022/05/15 01:03:06;;;;;;;2.65;1.63;;;23.50;99.90;;;;;;4995325;28;20026;-82
2022/05/15 01:05:37;;;;;;;3.97;1.80;;;23.70;99.90;;;;;;4994478;28;20064;-81
2022/05/15 01:08:04;;;;;;;;;;;23.90;99.90;;;;;;4995538;28;20420;-80
2022/05/15 01:10:33;;;;;;;1.33;0.93;;;24.00;99.90;;;;;;4994638;28;20421;-80
2022/05/15 01:13:01;;;;;;;1.67;1.20;;;24.00;99.90;;;;;;4994683;28;20022;-80
2022/05/15 01:15:29;;;;;;;1.27;1.00;;;24.20;99.90;;;;;;4994658;28;20076;-81
2022/05/15 01:17:56;;;;;;;2.17;0.93;;;24.40;99.90;;;;;;4994698;28;20041;-80
2022/05/15 01:20:28;;;;;;;2.35;1.33;;;24.60;99.90;;;;;;4994702;28;20026;-79
2022/05/15 01:22:56;;;;;;;1.35;1.02;;;24.90;99.90;;;;;;4993169;28;20487;-78
2022/05/15 01:25:27;;;;;;;1.60;1.20;;;25.10;99.90;;;;;;4994452;28;20037;-79
2022/05/15 01:28:03;;;;;;;2.58;1.10;;;25.20;99.90;;;;;;4994697;28;20479;-80
2022/05/15 01:30:31;;;;;;;2.40;1.38;;;25.20;99.90;;;;;;4994666;28;20027;-79
2022/05/15 01:32:59;;;;;;;1.77;0.90;;;25.10;99.90;;;;;;4994150;28;20049;-79
2022/05/15 01:35:27;;;;;;;3.50;0.88;;;25.10;99.90;;;;;;4993043;28;20038;-79
2022/05/15 01:37:54;;;;;;;1.17;0.68;;;25.10;99.90;;;;;;4993216;28;20080;-80
2022/05/15 01:40:22;;;;;;;1.05;0.80;;;25.10;99.90;;;;;;4994397;28;20053;-81
2022/05/15 01:42:49;;;;;;;1.52;1.00;;;25.10;99.90;;;;;;4994669;28;20035;-80
2022/05/15 01:45:17;;;;;;;1.20;0.88;;;25.10;99.90;;;;;;4994270;28;20092;-80
2022/05/15 01:47:44;;;;;;;1.63;1.02;;;24.90;99.90;;;;;;4994243;28;20014;-81
2022/05/15 01:50:14;;;;;;;1.33;1.20;;;25.00;99.90;;;;;;4992997;28;20030;-80
2022/05/15 01:52:41;;;;;;;2.33;1.27;;;24.80;99.90;;;;;;4994128;28;20022;-80
2022/05/15 01:55:09;;;;;;;1.63;1.40;;;24.90;99.90;;;;;;4995080;28;20023;-79
2022/05/15 01:57:37;;;;;;;2.00;1.17;;;25.00;99.90;;;;;;4995286;28;20053;-79
2022/05/15 02:00:08;;;;;;;1.70;1.30;;;25.20;99.90;;;;;;4993256;28;20022;-79
2022/05/15 02:02:37;;;;;;;3.22;1.17;;;25.20;99.90;;;;;;4995785;28;20030;-81
2022/05/15 02:05:05;;;;;;;1.35;1.00;;;25.00;99.90;;;;;;4994696;28;20031;-82
2022/05/15 02:07:33;;;;;;;1.63;1.05;;;24.80;99.90;;;;;;4994199;28;20399;-81
2022/05/15 02:10:01;;;;;;;3.83;1.60;;;25.00;99.90;;;;;;4995645;28;20026;-80
2022/05/15 02:12:28;;;;;;;1.40;1.30;;;25.10;99.90;;;;;;4995232;28;20025;-81
2022/05/15 02:14:55;;;;;;;1.23;1.00;;;25.10;99.90;;;;;;4995042;28;20502;-81
2022/05/15 02:17:23;;;;;;;3.10;1.00;;;25.10;99.90;;;;;;4995223;28;20026;-81
2022/05/15 02:19:50;;;;;;;1.88;0.70;;;25.00;99.90;;;;;;4995185;28;20019;-81
2022/05/15 02:22:17;;;;;;;1.70;1.00;;;24.80;99.90;;;;;;4995900;28;20026;-80
2022/05/15 02:24:45;;;;;;;1.35;0.77;;;25.20;99.90;;;;;;4994634;28;20112;-80
2022/05/15 02:27:12;;;;;;;1.77;0.68;;;25.40;99.90;;;;;;4994177;28;20023;-80
2022/05/15 02:29:40;;;;;;;1.50;0.80;;;25.70;99.90;;;;;;4993638;28;20059;-79
2022/05/15 02:32:07;;;;;;;3.38;1.15;;;25.90;99.90;;;;;;4995458;28;20494;-79
2022/05/15 02:34:35;;;;;;;1.48;1.00;;;25.90;99.90;;;;;;4994525;28;20031;-79
2022/05/15 02:37:02;;;;;;;1.52;1.08;;;25.80;99.90;;;;;;4994457;28;20022;-78
2022/05/15 02:39:30;;;;;;;1.30;1.00;;;25.80;99.90;;;;;;4995212;28;20034;-78
2022/05/15 02:41:57;;;;;;;1.50;0.80;;;25.90;99.90;;;;;;4992832;28;20030;-78
2022/05/15 02:44:24;;;;;;;1.10;0.80;;;26.10;99.90;;;;;;4993020;28;20034;-79
2022/05/15 02:46:52;;;;;;;1.95;0.88;;;26.30;99.90;;;;;;4994597;28;20018;-79
2022/05/15 02:52:05;;;;;;;2.88;1.60;;;26.10;99.90;;;;;;4994729;28;20062;-78
2022/05/15 02:54:33;;;;;;;1.42;0.75;;;25.90;99.90;;;;;;4992291;28;20041;-76
2022/05/15 02:57:02;;;;;;;2.47;1.20;;;25.60;99.90;;;;;;4994896;28;20026;-75
2022/05/15 02:59:29;;;;;;;1.33;1.00;;;25.60;99.90;;;;;;4993720;28;20069;-77
2022/05/15 03:01:57;;;;;;;1.73;1.10;;;25.50;99.90;;;;;;4994293;28;20022;-78
2022/05/15 03:04:27;;;;;;;2.53;1.20;;;25.50;99.90;;;;;;4992296;28;20045;-78
2022/05/15 03:06:54;;;;;;;1.60;1.02;;;25.50;99.90;;;;;;4993599;28;20076;-76
2022/05/15 03:09:22;;;;;;;2.40;1.15;;;25.30;99.90;;;;;;4994630;28;20041;-78
2022/05/15 03:11:49;;;;;;;2.88;1.30;;;25.20;99.90;;;;;;4995352;28;20022;-77
2022/05/15 03:14:17;;;;;;;3.03;1.40;;;25.20;99.90;;;;;;4996458;28;20037;-77
2022/05/15 03:16:44;;;;;;;1.98;1.23;;;25.10;99.90;;;;;;4997500;28;20023;-77
2022/05/15 03:19:11;;;;;;;1.98;1.40;;;25.20;99.90;;;;;;4997942;28;20078;-77
2022/05/15 03:21:39;;;;;;;2.42;1.40;;;25.20;99.90;;;;;;4997870;28;20022;-77
2022/05/15 03:24:09;;;;;;;2.83;1.70;;;25.30;99.90;;;;;;4997932;28;20042;-76
2022/05/15 03:26:40;;;;;;;1.40;1.30;;;25.20;99.90;;;;;;4996147;28;20446;-76
2022/05/15 03:29:10;;;;;;;1.95;1.00;;;25.30;99.90;;;;;;4997446;28;20034;-80
2022/05/15 03:31:39;;;;;;;2.35;1.20;;;25.30;99.90;;;;;;4996700;28;20113;-76
2022/05/15 03:34:09;;;;;;;1.27;1.17;;;25.30;99.90;;;;;;4996671;28;20038;-76
2022/05/15 03:36:38;;;;;;;2.05;1.15;;;25.50;99.90;;;;;;4996748;28;20026;-78
2022/05/15 03:39:08;;;;;;;2.25;1.00;;;25.30;99.90;;;;;;4995520;28;20039;-78
2022/05/15 03:41:37;;;;;;;2.53;1.60;;;25.30;99.90;;;;;;4995767;28;20165;-80
2022/05/15 03:44:05;;;;;;;2.08;0.90;;;25.40;99.90;;;;;;4997828;28;20038;-78
2022/05/15 03:46:33;;;;;;;3.38;1.30;;;25.30;99.90;;;;;;4996989;28;20037;-79
2022/05/15 03:49:01;;;;;;;1.70;1.20;;;25.30;99.90;;;;;;4996372;28;20030;-82
2022/05/15 03:51:28;;;;;;;4.88;1.65;;;25.10;99.90;;;;;;4996839;28;20053;-77
2022/05/15 03:53:55;;;;;;;2.05;1.10;;;25.20;99.90;;;;;;4996299;28;20034;-78
2022/05/15 03:57:09;;;;;;;2.80;1.40;;;25.10;99.90;;;;;;4996340;28;20470;-80
2022/05/15 03:59:12;;;;;;;1.73;1.20;;;25.20;99.90;;;;;;4990157;28;20044;-80
2022/05/15 04:01:40;;;;;;;2.20;1.58;;;25.30;99.90;;;;;;4997357;28;20026;-77
2022/05/15 04:04:08;;;;;;;3.15;1.52;;;25.20;99.90;;;;;;4996346;28;20026;-76
2022/05/15 04:06:35;;;;;;;3.70;1.60;;;25.20;99.90;;;;;;4996895;28;20085;-81
2022/05/15 04:09:03;;;;;;;3.63;1.48;;;25.20;99.90;;;;;;4996080;28;20384;-81
2022/05/15 04:11:31;;;;;;;3.03;1.50;;;25.10;99.90;;;;;;4996012;28;20113;-82
2022/05/15 04:13:58;;;;;;;4.18;1.60;;;25.20;99.90;;;;;;4998445;28;20026;-83
2022/05/15 04:16:25;;;;;;;3.30;1.60;;;25.20;99.90;;;;;;4995569;28;20022;-80
2022/05/15 04:18:53;;;;;;;1.90;1.20;;;25.20;99.90;;;;;;4996476;28;20415;-80
2022/05/15 04:21:21;;;;;;;3.20;1.70;;;25.20;99.90;;;;;;4996131;28;20053;-79
2022/05/15 04:23:48;;;;;;;2.75;1.40;;;25.20;99.90;;;;;;4993293;28;20037;-80
2022/05/15 04:26:15;;;;;;;4.70;1.80;;;25.20;99.90;;;;;;4995790;28;20018;-80
2022/05/15 04:28:43;;;;;;;2.08;1.50;;;25.10;99.90;;;;;;4997550;28;20110;-83
2022/05/15 04:31:10;;;;;;;3.15;1.55;;;25.20;99.90;;;;;;4995387;28;20019;-83
2022/05/15 04:33:37;;;;;;;2.92;1.60;;;25.10;99.90;;;;;;4996012;28;20019;-79
2022/05/15 04:36:05;;;;;;;2.42;1.33;;;25.10;99.90;;;;;;4994538;28;20023;-79
2022/05/15 04:38:32;;;;;;;1.65;1.23;;;25.00;99.90;;;;;;4995630;28;20495;-78
2022/05/15 04:41:00;;;;;;;3.00;1.35;;;24.90;99.90;;;;;;4995441;28;20023;-82
2022/05/15 04:43:27;;;;;;;3.88;1.65;;;24.80;99.90;;;;;;4995645;28;20026;-81
2022/05/15 04:45:54;;;;;;;2.40;1.70;;;24.80;99.90;;;;;;4995842;28;20022;-80
2022/05/15 04:48:22;;;;;;;2.33;1.48;;;24.80;99.90;;;;;;4994236;28;20114;-79
2022/05/15 04:50:49;;;;;;;1.90;1.25;;;24.80;99.90;;;;;;4994172;28;20030;-78
2022/05/15 04:53:16;;;;;;;3.83;1.73;;;24.80;99.90;;;;;;4993995;28;20035;-77
2022/05/15 04:55:43;;;;;;;4.43;2.30;;;24.70;99.90;;;;;;4993785;28;20081;-78
2022/05/15 04:58:14;;;;;;;4.82;1.90;;;24.40;99.90;;;;;;4994999;28;20058;-79
2022/05/15 05:00:43;;;;;;;4.15;2.00;;;24.20;99.90;;;;;;4995749;28;20019;-78
2022/05/15 05:03:10;;;;;;;5.03;2.10;;;24.00;99.90;;;;;;4995007;28;20456;-77
2022/05/15 05:05:37;;;;;;;3.83;1.92;;;23.80;99.90;;;;;;4994691;28;20129;-77
2022/05/15 05:08:07;;;;;;;5.82;1.98;;;23.40;99.90;;;;;;4995060;28;20108;-77
2022/05/15 05:10:37;;;;;;;4.15;1.92;;;23.30;99.90;;;;;;4993632;28;20026;-78
2022/05/15 05:13:05;;;;;;;5.93;2.10;;;23.00;99.90;;;;;;4993654;28;20064;-79
2022/05/15 05:15:32;;;;;;;3.97;1.83;;;22.90;99.90;;;;;;4993890;28;20054;-78
2022/05/15 05:17:59;;;;;;;4.25;2.17;;;22.80;99.90;;;;;;4994868;28;20043;-79
2022/05/15 05:20:27;;;;;;;4.22;2.33;;;22.60;99.90;;;;;;4993584;28;20108;-78
2022/05/15 05:22:54;;;;;;;3.72;2.08;;;22.60;99.90;;;;;;4994716;28;20475;-78
2022/05/15 05:25:22;;;;;;;6.68;2.00;;;22.60;99.90;;;;;;4993397;28;20026;-79
2022/05/15 05:27:49;;;;;;;7.88;2.35;;;22.70;99.90;;;;;;4994664;28;20018;-79
2022/05/15 05:30:21;;;;;;;5.82;2.28;;;22.70;99.90;;;;;;4993370;28;20046;-79
2022/05/15 05:32:50;;;;;;;7.50;2.47;;;22.60;99.90;;;;;;4994656;28;20041;-78
2022/05/15 05:35:19;;;;;;;6.70;2.65;;;22.50;99.90;;;;;;4994326;28;20023;-78
2022/05/15 05:37:46;;;;;;;5.10;2.55;;;22.50;99.90;;;;;;4994577;28;20430;-79
2022/05/15 05:40:14;;;;;;;6.18;2.65;;;22.50;99.90;;;;;;4994910;28;20070;-78
2022/05/15 05:42:41;;;;;;;5.45;2.58;;;22.40;99.90;;;;;;4994349;28;20026;-78
2022/05/15 05:45:09;;;;;;;7.72;2.95;;;22.40;99.90;;;;;;4993168;28;20166;-79
2022/05/15 05:47:36;;;;;;;7.10;2.92;;;22.40;99.90;;;;;;4992812;28;20026;-78
2022/05/15 05:50:08;;;;;;;9.80;3.03;;;22.40;99.90;;;;;;4993109;28;20022;-79
2022/05/15 05:52:39;;;;;;;7.85;3.08;;;22.40;99.90;;;;;;4994353;28;20045;-78
2022/05/15 05:55:10;;;;;;;5.80;2.58;;;22.30;99.90;;;;;;4992881;28;20057;-75
2022/05/15 05:57:37;;;;;;;;;;;22.20;99.90;;;;;;4994462;28;20023;-78
2022/05/15 06:00:07;;;;;;;5.70;2.70;;;22.20;99.90;;;;;;4992974;28;19906;-77
2022/05/15 06:02:35;;;;;;;4.50;2.80;;;22.20;99.90;;;;;;4994011;28;20109;-77
2022/05/15 06:05:03;;;;;;;6.93;2.80;;;22.10;99.90;;;;;;4992426;28;20133;-77
2022/05/15 06:07:33;;;;;;;4.72;2.88;;;22.10;99.90;;;;;;4993922;28;20042;-77
2022/05/15 06:10:02;;;;;;;6.45;3.28;;;22.00;99.90;;;;;;4994038;28;20487;-74
2022/05/15 06:12:30;;;;;;;10.40;3.47;;;22.00;99.90;;;;;;4992475;28;20027;-78
2022/05/15 06:14:57;;;;;;;6.75;2.97;;;21.90;99.90;;;;;;4993985;28;20506;-76
2022/05/15 06:17:27;;;;;;;7.78;2.75;;;21.80;99.90;;;;;;4993860;28;20029;-76
2022/05/15 06:19:56;;;;;;;6.07;2.90;;;21.70;99.90;;;;;;4992593;28;20026;-76
2022/05/15 06:22:23;;;;;;;5.32;2.50;;;21.70;99.90;;;;;;4993947;28;20031;-76
2022/05/15 06:24:51;;;;;;;5.68;3.00;;;21.60;99.90;;;;;;4994048;28;20477;-77
2022/05/15 06:27:18;;;;;;;5.90;3.03;;;21.70;99.90;;;;;;4994259;28;20022;-79
2022/05/15 06:29:45;;;;;;;6.07;2.90;;;21.60;99.90;;;;;;4992635;28;20022;-79
2022/05/15 06:32:12;;;;;;;6.82;3.15;;;21.50;99.90;;;;;;4994013;28;20416;-77
2022/05/15 06:34:40;;;;;;;6.30;3.10;;;21.50;99.90;;;;;;4993710;28;20061;-78
2022/05/15 06:37:08;;;;;;;6.70;2.47;;;21.50;99.90;;;;;;4992995;28;20046;-76
2022/05/15 06:39:35;;;;;;;7.78;3.00;;;21.50;99.90;;;;;;4992302;28;20030;-77
2022/05/15 06:42:03;;;;;;;4.93;2.55;;;21.40;99.90;;;;;;4992318;28;20129;-78
2022/05/15 06:44:30;;;;;;;5.80;3.38;;;21.40;99.90;;;;;;4993618;28;20030;-80
2022/05/15 06:46:57;;;;;;;6.00;3.00;;;21.30;99.90;;;;;;4994134;28;20463;-79
2022/05/15 06:49:25;;;;;;;6.40;2.72;;;21.30;99.90;;;;;;4996354;28;20022;-79
2022/05/15 06:51:52;;;;;;;5.00;2.75;;;21.30;99.90;;;;;;4996233;28;20029;-80
2022/05/15 06:54:20;;;;;;;4.57;2.92;;;21.20;99.90;;;;;;4997628;28;20026;-80
2022/05/15 06:59:34;;;;;;;4.38;2.50;;;21.20;99.90;;;;;;4997511;28;20085;-79
2022/05/15 07:02:03;;;;;;;7.57;3.60;;;21.20;99.90;;;;;;4996331;28;20476;-81
2022/05/15 07:04:30;;;;;;;6.60;2.95;;;21.10;99.90;;;;;;4997450;28;20534;-81
2022/05/15 07:06:57;;;;;;;5.32;2.90;;;21.10;99.90;;;;;;4998087;28;20045;-81
2022/05/15 07:09:27;;;;;;;8.27;3.22;;;21.10;99.90;;;;;;4996268;28;20023;-80
2022/05/15 07:11:54;;;;;;;5.47;2.85;;;21.20;99.90;;;;;;4997567;28;20497;-80
2022/05/15 07:14:22;;;;;;;8.32;2.90;;;21.10;99.90;;;;;;4997457;28;20076;-82
2022/05/15 07:16:50;;;;;;;5.47;3.40;;;21.10;99.90;;;;;;4996474;28;20110;-84
2022/05/15 07:19:17;;;;;;;5.32;2.88;;;21.00;99.90;;;;;;4997370;28;20030;-79
2022/05/15 07:21:44;;;;;;;4.70;2.80;;;21.00;99.90;;;;;;4997289;28;20050;-82
2022/05/15 07:24:12;;;;;;;5.28;2.63;;;21.00;99.90;;;;;;4997534;28;20030;-81
2022/05/15 07:26:44;;;;;;;5.63;2.80;;;20.90;99.90;;;;;;4997448;28;20032;-81
2022/05/15 07:29:12;;;;;;;4.60;2.60;;;20.90;99.90;;;;;;4996842;28;20395;-79
2022/05/15 07:31:43;;;;;;;6.82;3.08;;;20.80;99.90;;;;;;4997965;28;20364;-80
2022/05/15 07:34:13;;;;;;;5.05;3.10;;;20.80;99.90;;;;;;4997404;28;20085;-80
2022/05/15 07:36:40;;;;;;;7.75;3.25;;;20.80;99.90;;;;;;4995662;28;20077;-80
2022/05/15 07:39:08;;;;;;;6.25;3.30;;;20.70;99.90;;;;;;4995492;28;20396;-79
2022/05/15 07:41:35;;;;;;;5.88;2.80;;;20.70;99.90;;;;;;4996922;28;20042;-79
2022/05/15 07:44:03;;;;;;;3.95;2.60;;;20.70;99.90;;;;;;4995414;28;20129;-79
2022/05/15 07:46:30;;;;;;;7.38;3.00;;;20.70;99.90;;;;;;4996782;28;20026;-79
2022/05/15 07:48:58;;;;;;;4.35;3.10;;;20.60;99.90;;;;;;4996741;28;20538;-78
2022/05/15 07:51:26;;;;;;;8.07;3.33;;;20.60;99.90;;;;;;4996379;28;20123;-80
2022/05/15 07:53:53;;;;;;;7.43;3.55;;;20.60;99.90;;;;;;4996345;28;20368;-79
2022/05/15 07:56:20;;;;;;;5.65;3.40;;;20.50;99.90;;;;;;4996266;28;20030;-81
2022/05/15 07:58:49;;;;;;;6.65;4.18;;;20.50;99.90;;;;;;4994788;28;20030;-80
2022/05/15 08:01:16;;;;;;;5.30;3.92;;;20.50;99.90;;;;;;4994867;28;20041;-79
2022/05/15 08:03:45;;;;;;;7.38;4.05;;;20.50;99.90;;;;;;4996261;28;20018;-81
2022/05/15 08:09:09;;;;;;;4.90;3.13;;;20.40;99.90;;;;;;4988075;28;20035;-81
2022/05/15 08:11:37;;;;;;;5.68;3.45;;;20.50;99.90;;;;;;4995978;28;20169;-81
2022/05/15 08:14:07;;;;;;;8.27;3.88;;;20.40;99.90;;;;;;4994622;28;20023;-81
2022/05/15 08:16:38;;;;;;;7.20;3.33;;;20.40;99.90;;;;;;4994771;28;20065;-83
2022/05/15 08:24:39;;;;;;;7.13;3.78;;;20.40;99.90;;;;;;4996337;28;20549;-82
2022/05/15 08:27:09;;;;;;;6.30;4.38;;;20.40;99.90;;;;;;4994407;28;20037;-82
2022/05/15 08:29:38;;;;;;;5.50;3.40;;;20.40;99.90;;;;;;4994671;28;20034;-83
2022/05/15 08:32:07;;;;;;;6.00;3.75;;;20.40;99.90;;;;;;4995914;28;20019;-83
2022/05/15 08:34:35;;;;;;;8.88;4.40;;;20.40;99.90;;;;;;4995683;28;20026;-82
2022/05/15 08:37:03;;;;;;;6.13;3.80;;;20.40;99.90;;;;;;4995691;28;20025;-83
2022/05/15 08:39:31;;;;;;;4.60;3.90;;;20.40;99.90;;;;;;4995630;28;20030;-82
2022/05/15 08:42:07;;;;;;;5.50;4.18;;;20.40;99.90;;;;;;4995429;28;20399;-79
2022/05/15 08:44:43;;;;;;;6.47;4.28;;;20.30;99.90;;;;;;4993987;28;20030;-80
2022/05/15 08:47:30;;;;;;;7.57;4.68;;;20.30;99.90;;;;;;4995110;28;20096;-78
2022/05/15 08:50:06;;;;;;;7.43;4.30;;;20.30;99.90;;;;;;4993848;28;20501;-77
2022/05/15 08:52:45;;;;;;;8.45;5.03;;;20.30;99.90;;;;;;4995243;28;20021;-79
2022/05/15 08:55:40;;;;;;;7.53;4.82;;;20.30;99.90;;;;;;4995396;28;20053;-78
2022/05/15 08:58:24;;;;;;;9.07;6.38;;;20.30;99.90;;;;;;4995140;28;20037;-79
2022/05/15 09:00:54;;;;;;;9.20;6.47;;;20.30;99.90;;;;;;4993653;28;20137;-79
2022/05/15 09:03:31;;;;;;;12.43;7.05;;;20.30;99.90;;;;;;4994921;28;20033;-79
2022/05/15 09:06:10;;;;;;;12.02;5.97;;;20.30;99.90;;;;;;4993336;28;20073;-78
2022/05/15 09:08:46;;;;;;;10.35;6.15;;;20.30;99.90;;;;;;4995107;28;20023;-79
2022/05/15 09:11:20;;;;;;;9.18;6.03;;;20.30;99.90;;;;;;4994735;28;20025;-78
2022/05/15 09:13:55;;;;;;;9.40;5.70;;;20.30;99.90;;;;;;4993563;28;20030;-78
2022/05/15 09:16:30;;;;;;;7.05;4.80;;;20.30;99.90;;;;;;4994763;28;20030;-79
2022/05/15 09:19:06;;;;;;;8.13;5.10;;;20.30;99.90;;;;;;4993350;28;20035;-79
2022/05/15 09:21:34;;;;;;;7.72;5.28;;;20.30;99.90;;;;;;4993297;28;20027;-77
2022/05/15 09:24:15;;;;;;;11.02;6.20;;;20.30;99.90;;;;;;4994658;28;20057;-77
2022/05/15 09:26:46;;;;;;;10.18;6.35;;;20.30;99.90;;;;;;4993195;28;20034;-78
2022/05/15 09:29:26;;;;;;;9.85;6.70;;;20.20;99.90;;;;;;4997564;28;20022;-78
2022/05/15 09:31:54;;;;;;;7.97;5.70;;;20.20;99.90;;;;;;4994742;28;20049;-78
2022/05/15 09:34:29;;;;;;;8.63;6.28;;;20.10;99.90;;;;;;4993396;28;20121;-78
2022/05/15 09:39:49;;;;;;;8.25;6.20;;;20.10;99.90;;;;;;4995115;28;20030;-78
2022/05/15 09:45:20;;;;;;;7.97;5.78;;;20.00;99.90;;;;;;4994879;28;20506;-80
2022/05/15 09:48:05;;;;;;;9.35;5.97;;;20.00;99.90;;;;;;4994721;28;20018;-80
2022/05/15 09:50:48;;;;;;;9.15;5.85;;;19.90;99.90;;;;;;4994697;28;20065;-79
2022/05/15 09:53:22;;;;;;;8.48;5.57;;;19.80;99.90;;;;;;4993189;28;20034;-79
2022/05/15 09:56:10;;;;;;;7.32;5.45;;;19.80;99.90;;;;;;4994831;28;20367;-80
2022/05/15 09:58:46;;;;;;;8.48;6.03;;;19.70;99.90;;;;;;4993089;28;20040;-80
2022/05/15 10:01:16;;;;;;;8.13;5.25;;;19.70;99.90;;;;;;4993125;28;20080;-79
2022/05/15 10:03:47;;;;;;;;;;;19.70;99.90;;;;;;4995469;28;20481;-80
2022/05/15 10:06:19;;;;;;;11.85;5.43;;;19.70;99.90;;;;;;4993169;28;19925;-80
2022/05/15 10:09:04;;;;;;;8.15;5.80;;;19.70;99.90;;;;;;4993238;28;20034;-80
2022/05/15 10:11:35;;;;;;;8.98;5.43;;;19.60;99.90;;;;;;4994258;28;20035;-79
2022/05/15 10:14:03;;;;;;;9.00;5.28;;;19.60;99.90;;;;;;4994567;28;20026;-79
2022/05/15 10:16:36;;;;;;;7.80;5.15;;;19.60;99.90;;;;;;4994149;28;20383;-78
2022/05/15 10:19:08;;;;;;;8.80;5.10;;;19.60;99.90;;;;;;4992951;28;20502;-80
2022/05/15 10:21:35;;;;;;;7.82;5.97;;;19.60;99.90;;;;;;4993278;28;20383;-79
2022/05/15 10:24:07;;;;;;;7.40;5.13;;;19.60;99.90;;;;;;4994051;28;20466;-78
2022/05/15 10:26:58;;;;;;;8.68;5.63;;;19.50;99.90;;;;;;4994251;28;20030;-79
2022/05/15 10:29:30;;;;;;;7.07;5.63;;;19.50;99.90;;;;;;4994394;28;20027;-79
2022/05/15 10:32:07;;;;;;;10.65;6.10;;;19.50;99.90;;;;;;4993983;28;20357;-77
2022/05/15 10:34:35;;;;;;;8.10;5.82;;;19.50;99.90;;;;;;4992743;28;20364;-78
2022/05/15 10:37:23;;;;;;;9.55;5.93;;;19.40;99.90;;;;;;4993788;28;20542;-79
2022/05/15 10:40:20;;;;;;;7.93;5.45;;;19.30;99.90;;;;;;4993794;28;20026;-79
2022/05/15 10:43:07;;;;;;;7.07;5.43;;;19.30;99.90;;;;;;4992588;28;20117;-80
2022/05/15 10:45:48;;;;;;;9.00;6.35;;;19.20;99.90;;;;;;4993778;28;20073;-78
2022/05/15 10:48:47;;;;;;;7.40;6.03;;;19.20;99.90;;;;;;4992780;28;20030;-77
2022/05/15 10:51:17;;;;;;;10.90;6.35;;;19.20;99.90;;;;;;4992406;28;20368;-78
2022/05/15 10:59:59;;;;;;;8.18;5.82;;;19.00;99.90;;;;;;4994181;28;20030;-77
2022/05/15 11:02:32;;;;;;;9.13;6.25;;;19.00;99.90;;;;;;4994134;28;20026;-77
2022/05/15 11:05:27;;;;;;;10.18;7.38;;;19.00;99.90;;;;;;4991918;28;20125;-77
2022/05/15 11:08:22;;;;;;;10.88;7.07;;;19.00;99.90;;;;;;4992251;28;20029;-77
2022/05/15 11:10:54;;;;;;;11.68;7.70;;;19.10;99.90;;;;;;4993687;28;20098;-77
2022/05/15 11:13:40;;;;;;;11.15;7.25;;;19.10;99.90;;;;;;4992433;28;20053;-76
2022/05/15 11:16:20;;;;;;;14.65;9.32;;;19.20;99.90;;;;;;4993797;28;20019;-79
2022/05/15 11:19:11;;;;;;;14.73;8.23;;;19.20;99.90;;;;;;4993975;28;20026;-77
2022/05/15 11:22:11;;;;;;;14.35;9.07;;;19.20;99.90;;;;;;4992258;28;20030;-79
2022/05/15 11:24:50;;;;;;;14.60;9.18;;;19.20;99.90;;;;;;4992277;28;20031;-78
2022/05/15 11:27:39;;;;;;;14.05;9.32;;;19.30;99.90;;;;;;4993656;28;20023;-77
2022/05/15 11:30:30;;;;;;;13.60;8.52;;;19.40;99.90;;;;;;4992576;28;20030;-77
2022/05/15 11:33:03;;;;;;;14.10;8.75;;;19.40;99.90;;;;;;4995275;28;20019;-77
2022/05/15 11:36:01;;;;;;;14.43;9.50;;;19.40;99.90;;;;;;4997476;28;20105;-77
2022/05/15 11:38:31;;;;;;;14.75;8.40;;;19.30;99.90;;;;;;4995872;28;20022;-76
2022/05/15 11:40:59;;;;;;;;;;;19.30;99.90;;;;;;4995880;28;20484;-78
2022/05/15 11:43:29;;;;;;;13.60;9.73;;;19.30;99.90;;;;;;4996757;28;19911;-77
2022/05/15 11:46:11;;;;;;;19.38;11.18;;;19.20;99.90;;;;;;4997719;28;20081;-77
2022/05/15 11:48:44;;;;;;;15.32;10.55;;;19.30;99.90;;;;;;4996706;28;20023;-77
2022/05/15 11:51:14;;;;;;;15.65;11.38;;;19.30;99.90;;;;;;4996637;28;20178;-77
2022/05/15 11:54:09;;;;;;;20.30;10.98;;;19.40;99.90;;;;;;4996604;28;20022;-77
2022/05/15 11:56:47;;;;;;;13.20;9.95;;;19.30;99.90;;;;;;4996508;28;20034;-77
2022/05/15 11:59:21;;;;;;;15.25;9.63;;;19.30;99.90;;;;;;4995216;28;20023;-77
2022/05/15 12:01:56;;;;;;;12.35;8.35;;;19.20;99.90;;;;;;4996879;28;20101;-76
2022/05/15 12:04:26;;;;;;;12.45;8.18;;;19.20;99.90;;;;;;4994690;28;20053;-77
2022/05/15 12:06:59;;;;;;;11.13;8.30;;;19.20;99.90;;;;;;4996679;28;20109;-77
2022/05/15 12:09:44;;;;;;;9.10;7.00;;;19.20;99.90;;;;;;4997224;28;20501;-77
2022/05/15 12:12:31;;;;;;;11.05;7.35;;;19.10;99.90;;;;;;4996386;28;20030;-77
2022/05/15 12:15:21;;;;;;;8.52;6.93;;;19.10;99.90;;;;;;4996489;28;20033;-77
2022/05/15 12:17:51;;;;;;;10.63;7.40;;;19.10;99.90;;;;;;4996585;28;20030;-78
2022/05/15 12:20:22;;;;;;;9.63;7.03;;;19.10;99.90;;;;;;4994745;28;20026;-77
2022/05/15 12:23:13;;;;;;;10.70;7.50;;;19.00;99.90;;;;;;4994574;28;20076;-78
2022/05/15 12:26:13;;;;;;;10.75;7.18;;;19.00;99.90;;;;;;4995708;28;20030;-78
2022/05/15 12:28:51;;;;;;;11.02;6.47;;;18.90;99.90;;;;;;4962981;28;20403;-78
2022/05/15 12:31:39;;;;;;;8.40;5.40;;;18.90;99.90;;;;;;4995717;28;20022;-78
2022/05/15 12:34:23;;;;;;;6.97;5.03;;;18.80;99.90;;;;;;4995917;28;20118;-76
2022/05/15 12:37:05;;;;;;;6.40;4.40;;;18.70;99.90;;;;;;4995673;28;20387;-77
2022/05/15 12:39:40;;;;;;;5.28;3.47;;;18.70;99.90;;;;;;4997863;28;20036;-76
2022/05/15 12:42:14;;;;;;;5.82;3.38;;;18.60;99.90;;;;;;4996166;28;20033;-76
2022/05/15 12:44:42;;;;;;;3.85;2.97;;;18.60;99.90;;;;;;4994744;28;20030;-78
2022/05/15 12:47:24;;;;;;;4.63;3.45;;;18.50;99.90;;;;;;4996256;28;20081;-78
2022/05/15 12:49:59;;;;;;;3.47;2.80;;;18.50;99.90;;;;;;4995783;28;20497;-78
2022/05/15 12:52:28;;;;;;;3.75;2.80;;;18.40;99.90;;;;;;4995676;28;20022;-78
2022/05/15 12:55:09;;;;;;;4.40;3.20;;;18.40;99.90;;;;;;4995571;28;20053;-78
2022/05/15 12:57:50;;;;;;;5.03;3.20;;;18.30;99.90;;;;;;4994192;28;20054;-77
2022/05/15 13:00:20;;;;;;;4.90;3.10;;;18.20;99.90;;;;;;4995985;28;20026;-77
2022/05/15 13:02:48;;;;;;;5.53;3.47;;;18.20;99.90;;;;;;4994029;28;20083;-77
2022/05/15 13:05:33;;;;;;;3.72;3.22;;;18.20;99.90;;;;;;4995479;28;20421;-78
2022/05/15 13:08:04;;;;;;;4.25;3.17;;;18.20;99.90;;;;;;4995162;28;20019;-77
2022/05/15 13:10:33;;;;;;;4.93;3.20;;;18.20;99.90;;;;;;4993829;28;20026;-78
2022/05/15 13:13:14;;;;;;;3.75;3.00;;;18.10;99.90;;;;;;4995135;28;20018;-77
2022/05/15 13:15:48;;;;;;;3.33;2.95;;;18.10;99.90;;;;;;5001853;28;20018;-78
2022/05/15 13:18:16;;;;;;;5.28;2.53;;;18.10;99.90;;;;;;5002075;28;20049;-77
2022/05/15 13:20:53;;;;;;;2.60;2.25;;;18.10;99.90;;;;;;5001344;28;20026;-77
2022/05/15 13:23:21;;;;;;;3.47;2.83;;;18.10;99.90;;;;;;5002398;28;20554;-77
2022/05/15 13:25:52;;;;;;;4.20;2.20;;;18.00;99.90;;;;;;5001572;28;20046;-77
2022/05/15 13:28:20;;;;;;;3.10;2.00;;;18.00;99.90;;;;;;5001622;28;20076;-77
2022/05/15 13:30:48;;;;;;;2.47;1.83;;;17.90;99.90;;;;;;4999998;28;20033;-76
2022/05/15 13:33:22;;;;;;;5.00;1.75;;;17.90;99.90;;;;;;5001340;28;20030;-77
2022/05/15 13:35:52;;;;;;;2.95;1.00;;;17.90;99.90;;;;;;5001452;28;20022;-76
2022/05/15 13:38:22;;;;;;;1.43;1.33;;;17.90;99.90;;;;;;5001425;28;20037;-77